sensor_id;sensor_type;location;lat;lon;timestamp;pressure;altitude;pressure_sealevel;temperature;humidity
12054;BME280;5638;50.860;4.698;2022-12-07T00:01:34;101472.97;;;8.35;nan
12054;BME280;5638;50.860;4.698;2022-12-07T00:04:03;101466.06;;;8.26;nan
12054;BME280;5638;50.860;4.698;2022-12-07T00:06:35;101469.50;;;8.23;nan
12054;BME280;5638;50.860;4.698;2022-12-07T00:09:06;101441.06;;;8.14;nan
12054;BME280;5638;50.860;4.698;2022-12-07T00:11:33;101460.00;;;8.22;nan
12054;BME280;5638;50.860;4.698;2022-12-07T00:14:03;101458.31;;;8.24;nan
12054;BME280;5638;50.860;4.698;2022-12-07T00:16:33;101466.00;;;8.12;nan
12054;BME280;5638;50.860;4.698;2022-12-07T00:19:03;101460.78;;;8.06;nan
12054;BME280;5638;50.860;4.698;2022-12-07T00:21:35;101454.78;;;8.06;nan
12054;BME280;5638;50.860;4.698;2022-12-07T00:24:03;101456.56;;;8.16;nan
12054;BME280;5638;50.860;4.698;2022-12-07T00:26:32;101452.22;;;8.09;nan
12054;BME280;5638;50.860;4.698;2022-12-07T00:29:05;101450.53;;;8.12;nan
12054;BME280;5638;50.860;4.698;2022-12-07T00:31:35;101451.38;;;8.13;nan
12054;BME280;5638;50.860;4.698;2022-12-07T00:34:06;101438.50;;;8.14;nan
12054;BME280;5638;50.860;4.698;2022-12-07T00:36:32;101447.09;;;8.16;nan
12054;BME280;5638;50.860;4.698;2022-12-07T00:39:00;101457.44;;;8.19;nan
12054;BME280;5638;50.860;4.698;2022-12-07T00:41:29;101459.16;;;8.22;nan
12054;BME280;5638;50.860;4.698;2022-12-07T00:43:57;101453.13;;;8.17;nan
12054;BME280;5638;50.860;4.698;2022-12-07T00:46:23;101447.94;;;8.14;nan
12054;BME280;5638;50.860;4.698;2022-12-07T00:48:51;101458.19;;;8.00;nan
12054;BME280;5638;50.860;4.698;2022-12-07T00:51:20;101454.63;;;7.81;nan
12054;BME280;5638;50.860;4.698;2022-12-07T00:53:47;101454.63;;;7.81;nan
12054;BME280;5638;50.860;4.698;2022-12-07T00:56:28;101446.84;;;7.70;nan
12054;BME280;5638;50.860;4.698;2022-12-07T00:58:57;101451.22;;;7.82;nan
12054;BME280;5638;50.860;4.698;2022-12-07T01:01:28;101448.63;;;7.82;nan
12054;BME280;5638;50.860;4.698;2022-12-07T01:03:54;101440.78;;;7.67;nan
12054;BME280;5638;50.860;4.698;2022-12-07T01:06:22;101439.94;;;7.66;nan
12054;BME280;5638;50.860;4.698;2022-12-07T01:08:49;101447.72;;;7.74;nan
12054;BME280;5638;50.860;4.698;2022-12-07T01:11:18;101448.53;;;7.73;nan
12054;BME280;5638;50.860;4.698;2022-12-07T01:13:45;101464.06;;;7.81;nan
12054;BME280;5638;50.860;4.698;2022-12-07T01:16:15;101456.34;;;7.79;nan
12054;BME280;5638;50.860;4.698;2022-12-07T01:18:44;101454.63;;;7.81;nan
12054;BME280;5638;50.860;4.698;2022-12-07T01:21:14;101456.34;;;7.79;nan
12054;BME280;5638;50.860;4.698;2022-12-07T01:23:40;101456.25;;;7.67;nan
12054;BME280;5638;50.860;4.698;2022-12-07T01:26:11;101448.56;;;7.71;nan
12054;BME280;5638;50.860;4.698;2022-12-07T01:28:38;101453.66;;;7.68;nan
12054;BME280;5638;50.860;4.698;2022-12-07T01:31:17;101453.78;;;7.82;nan
12054;BME280;5638;50.860;4.698;2022-12-07T01:33:47;101452.00;;;7.77;nan
12054;BME280;5638;50.860;4.698;2022-12-07T01:36:30;101449.44;;;7.73;nan
12054;BME280;5638;50.860;4.698;2022-12-07T01:39:00;101455.41;;;7.71;nan
12054;BME280;5638;50.860;4.698;2022-12-07T01:41:31;101445.91;;;7.61;nan
12054;BME280;5638;50.860;4.698;2022-12-07T01:46:34;101449.34;;;7.61;nan
12054;BME280;5638;50.860;4.698;2022-12-07T01:49:01;101448.50;;;7.62;nan
12054;BME280;5638;50.860;4.698;2022-12-07T01:51:29;101451.09;;;7.67;nan
12054;BME280;5638;50.860;4.698;2022-12-07T01:53:55;101446.69;;;7.49;nan
12054;BME280;5638;50.860;4.698;2022-12-07T01:56:27;101455.25;;;7.51;nan
12054;BME280;5638;50.860;4.698;2022-12-07T01:58:56;101467.31;;;7.54;nan
12054;BME280;5638;50.860;4.698;2022-12-07T02:01:22;101428.63;;;7.44;nan
12054;BME280;5638;50.860;4.698;2022-12-07T02:03:49;101459.59;;;7.55;nan
12054;BME280;5638;50.860;4.698;2022-12-07T02:06:21;101456.06;;;7.42;nan
12054;BME280;5638;50.860;4.698;2022-12-07T02:08:49;101470.75;;;7.56;nan
12054;BME280;5638;50.860;4.698;2022-12-07T02:11:16;101471.66;;;7.62;nan
12054;BME280;5638;50.860;4.698;2022-12-07T02:13:44;101469.09;;;7.61;nan
12054;BME280;5638;50.860;4.698;2022-12-07T02:16:42;101453.56;;;7.56;nan
12054;BME280;5638;50.860;4.698;2022-12-07T02:28:37;101444.00;;;7.38;nan
12054;BME280;5638;50.860;4.698;2022-12-07T02:31:19;101442.28;;;7.39;nan
12054;BME280;5638;50.860;4.698;2022-12-07T02:34:19;101444.00;;;7.38;nan
12054;BME280;5638;50.860;4.698;2022-12-07T02:36:58;101438.78;;;7.29;nan
12054;BME280;5638;50.860;4.698;2022-12-07T02:39:44;101448.22;;;7.29;nan
12054;BME280;5638;50.860;4.698;2022-12-07T02:42:21;101447.38;;;7.28;nan
12054;BME280;5638;50.860;4.698;2022-12-07T02:44:49;101441.22;;;7.12;nan
12054;BME280;5638;50.860;4.698;2022-12-07T02:47:19;101439.59;;;7.23;nan
12054;BME280;5638;50.860;4.698;2022-12-07T02:49:47;101435.28;;;7.22;nan
12054;BME280;5638;50.860;4.698;2022-12-07T02:52:13;101424.09;;;7.17;nan
12054;BME280;5638;50.860;4.698;2022-12-07T02:54:39;101432.75;;;7.26;nan
12054;BME280;5638;50.860;4.698;2022-12-07T03:00:17;101446.56;;;7.38;nan
12054;BME280;5638;50.860;4.698;2022-12-07T03:03:04;101431.09;;;7.35;nan
12054;BME280;5638;50.860;4.698;2022-12-07T03:11:16;101439.03;;;7.57;nan
12054;BME280;5638;50.860;4.698;2022-12-07T03:13:59;101422.66;;;7.50;nan
12054;BME280;5638;50.860;4.698;2022-12-07T03:16:35;101425.22;;;7.48;nan
12054;BME280;5638;50.860;4.698;2022-12-07T03:19:10;101417.47;;;7.45;nan
12054;BME280;5638;50.860;4.698;2022-12-07T03:21:42;101429.47;;;7.45;nan
12054;BME280;5638;50.860;4.698;2022-12-07T03:24:21;101420.94;;;7.49;nan
12054;BME280;5638;50.860;4.698;2022-12-07T03:27:09;101429.56;;;7.60;nan
12054;BME280;5638;50.860;4.698;2022-12-07T03:29:45;101427.81;;;7.56;nan
12054;BME280;5638;50.860;4.698;2022-12-07T03:32:30;101433.88;;;7.57;nan
12054;BME280;5638;50.860;4.698;2022-12-07T03:35:16;101419.19;;;7.48;nan
12054;BME280;5638;50.860;4.698;2022-12-07T03:38:04;101429.41;;;7.37;nan
12054;BME280;5638;50.860;4.698;2022-12-07T03:41:09;101431.16;;;7.43;nan
12054;BME280;5638;50.860;4.698;2022-12-07T03:43:39;101424.34;;;7.48;nan
12054;BME280;5638;50.860;4.698;2022-12-07T03:49:27;101419.19;;;7.48;nan
12054;BME280;5638;50.860;4.698;2022-12-07T03:55:02;101419.22;;;7.49;nan
12054;BME280;5638;50.860;4.698;2022-12-07T03:57:33;101423.56;;;7.57;nan
12054;BME280;5638;50.860;4.698;2022-12-07T04:00:02;101412.34;;;7.52;nan
12054;BME280;5638;50.860;4.698;2022-12-07T04:02:29;101398.63;;;7.51;nan
12054;BME280;5638;50.860;4.698;2022-12-07T04:04:56;101406.41;;;7.59;nan
12054;BME280;5638;50.860;4.698;2022-12-07T04:07:22;101410.69;;;7.57;nan
12054;BME280;5638;50.860;4.698;2022-12-07T04:09:48;101398.50;;;7.34;nan
12054;BME280;5638;50.860;4.698;2022-12-07T04:12:14;101403.56;;;7.27;nan
12054;BME280;5638;50.860;4.698;2022-12-07T04:14:39;101406.09;;;7.19;nan
12054;BME280;5638;50.860;4.698;2022-12-07T04:17:05;101412.09;;;7.15;nan
12054;BME280;5638;50.860;4.698;2022-12-07T04:19:34;101408.56;;;7.07;nan
12054;BME280;5638;50.860;4.698;2022-12-07T04:22:03;101415.50;;;7.15;nan
12054;BME280;5638;50.860;4.698;2022-12-07T04:24:29;101410.38;;;7.18;nan
12054;BME280;5638;50.860;4.698;2022-12-07T04:26:56;101412.00;;;7.10;nan
12054;BME280;5638;50.860;4.698;2022-12-07T04:29:23;101419.69;;;7.06;nan
12054;BME280;5638;50.860;4.698;2022-12-07T04:31:49;101413.72;;;7.08;nan
12054;BME280;5638;50.860;4.698;2022-12-07T04:34:16;101422.38;;;7.15;nan
12054;BME280;5638;50.860;4.698;2022-12-07T04:36:43;101421.47;;;7.13;nan
12054;BME280;5638;50.860;4.698;2022-12-07T04:41:45;101414.53;;;7.03;nan
12054;BME280;5638;50.860;4.698;2022-12-07T04:44:13;101409.31;;;6.96;nan
12054;BME280;5638;50.860;4.698;2022-12-07T04:46:41;101418.75;;;6.94;nan
12054;BME280;5638;50.860;4.698;2022-12-07T04:49:07;101401.44;;;6.80;nan
12054;BME280;5638;50.860;4.698;2022-12-07T04:51:33;101412.72;;;6.92;nan
12054;BME280;5638;50.860;4.698;2022-12-07T04:53:59;101412.78;;;6.98;nan
12054;BME280;5638;50.860;4.698;2022-12-07T04:56:25;101409.28;;;6.90;nan
12054;BME280;5638;50.860;4.698;2022-12-07T04:58:53;101414.47;;;6.96;nan
12054;BME280;5638;50.860;4.698;2022-12-07T05:01:20;101423.03;;;6.95;nan
12054;BME280;5638;50.860;4.698;2022-12-07T05:03:46;101419.56;;;6.93;nan
12054;BME280;5638;50.860;4.698;2022-12-07T05:06:13;101411.00;;;6.91;nan
12054;BME280;5638;50.860;4.698;2022-12-07T05:08:40;101407.56;;;6.92;nan
12054;BME280;5638;50.860;4.698;2022-12-07T05:11:07;101408.47;;;6.97;nan
12054;BME280;5638;50.860;4.698;2022-12-07T05:13:35;101393.00;;;6.90;nan
12054;BME280;5638;50.860;4.698;2022-12-07T05:16:02;101395.41;;;6.76;nan
12054;BME280;5638;50.860;4.698;2022-12-07T05:18:28;101428.97;;;6.87;nan
12054;BME280;5638;50.860;4.698;2022-12-07T05:20:53;101421.31;;;6.97;nan
12054;BME280;5638;50.860;4.698;2022-12-07T05:23:20;101419.63;;;6.96;nan
12054;BME280;5638;50.860;4.698;2022-12-07T05:25:46;101410.13;;;6.91;nan
12054;BME280;5638;50.860;4.698;2022-12-07T05:28:12;101406.63;;;6.84;nan
12054;BME280;5638;50.860;4.698;2022-12-07T05:30:38;101417.81;;;6.89;nan
12054;BME280;5638;50.860;4.698;2022-12-07T05:33:04;101405.69;;;6.76;nan
12054;BME280;5638;50.860;4.698;2022-12-07T05:35:30;101410.13;;;6.92;nan
12054;BME280;5638;50.860;4.698;2022-12-07T05:37:56;101406.72;;;6.92;nan
12054;BME280;5638;50.860;4.698;2022-12-07T05:40:24;101406.75;;;6.95;nan
12054;BME280;5638;50.860;4.698;2022-12-07T05:42:49;101411.03;;;6.97;nan
12054;BME280;5638;50.860;4.698;2022-12-07T05:45:15;101408.50;;;7.01;nan
12054;BME280;5638;50.860;4.698;2022-12-07T05:47:41;101411.91;;;6.95;nan
12054;BME280;5638;50.860;4.698;2022-12-07T05:50:07;101407.59;;;6.97;nan
12054;BME280;5638;50.860;4.698;2022-12-07T05:52:33;101407.59;;;6.97;nan
12054;BME280;5638;50.860;4.698;2022-12-07T05:54:59;101393.00;;;6.91;nan
12054;BME280;5638;50.860;4.698;2022-12-07T05:57:25;101397.31;;;6.95;nan
12054;BME280;5638;50.860;4.698;2022-12-07T05:59:51;101405.81;;;6.88;nan
12054;BME280;5638;50.860;4.698;2022-12-07T06:02:17;101401.41;;;6.77;nan
12054;BME280;5638;50.860;4.698;2022-12-07T06:04:46;101407.44;;;6.79;nan
12054;BME280;5638;50.860;4.698;2022-12-07T06:07:15;101403.06;;;6.71;nan
12054;BME280;5638;50.860;4.698;2022-12-07T06:09:41;101394.56;;;6.77;nan
12054;BME280;5638;50.860;4.698;2022-12-07T06:12:11;101393.78;;;6.84;nan
12054;BME280;5638;50.860;4.698;2022-12-07T06:14:56;101401.56;;;6.90;nan
12054;BME280;5638;50.860;4.698;2022-12-07T06:17:22;101398.97;;;6.89;nan
12054;BME280;5638;50.860;4.698;2022-12-07T06:19:48;101397.31;;;6.94;nan
12054;BME280;5638;50.860;4.698;2022-12-07T06:22:13;101405.03;;;6.94;nan
12054;BME280;5638;50.860;4.698;2022-12-07T06:24:42;101412.72;;;6.92;nan
12054;BME280;5638;50.860;4.698;2022-12-07T06:27:09;101406.66;;;6.86;nan
12054;BME280;5638;50.860;4.698;2022-12-07T06:29:35;101388.59;;;6.80;nan
12054;BME280;5638;50.860;4.698;2022-12-07T06:32:03;101413.53;;;6.88;nan
12054;BME280;5638;50.860;4.698;2022-12-07T06:34:28;101408.47;;;6.94;nan
12054;BME280;5638;50.860;4.698;2022-12-07T06:36:54;101411.06;;;6.99;nan
12054;BME280;5638;50.860;4.698;2022-12-07T06:39:27;101398.06;;;6.84;nan
12054;BME280;5638;50.860;4.698;2022-12-07T06:41:54;101403.28;;;6.91;nan
12054;BME280;5638;50.860;4.698;2022-12-07T06:44:21;101415.28;;;6.92;nan
12054;BME280;5638;50.860;4.698;2022-12-07T06:46:48;101404.91;;;6.83;nan
12054;BME280;5638;50.860;4.698;2022-12-07T06:49:14;101410.97;;;6.88;nan
12054;BME280;5638;50.860;4.698;2022-12-07T06:51:42;101392.06;;;6.83;nan
12054;BME280;5638;50.860;4.698;2022-12-07T06:54:10;101404.13;;;6.90;nan
12054;BME280;5638;50.860;4.698;2022-12-07T06:56:37;101403.16;;;6.81;nan
12054;BME280;5638;50.860;4.698;2022-12-07T06:59:04;101406.66;;;6.87;nan
12054;BME280;5638;50.860;4.698;2022-12-07T07:01:33;101409.25;;;6.87;nan
12054;BME280;5638;50.860;4.698;2022-12-07T07:03:59;101406.59;;;6.81;nan
12054;BME280;5638;50.860;4.698;2022-12-07T07:06:25;101407.53;;;6.86;nan
12054;BME280;5638;50.860;4.698;2022-12-07T07:08:51;101409.25;;;6.89;nan
12054;BME280;5638;50.860;4.698;2022-12-07T07:11:17;101417.00;;;6.90;nan
12054;BME280;5638;50.860;4.698;2022-12-07T07:13:44;101397.13;;;6.74;nan
12054;BME280;5638;50.860;4.698;2022-12-07T07:16:10;101422.09;;;6.87;nan
12054;BME280;5638;50.860;4.698;2022-12-07T07:18:36;101421.28;;;6.91;nan
12054;BME280;5638;50.860;4.698;2022-12-07T07:21:03;101420.44;;;6.92;nan
12054;BME280;5638;50.860;4.698;2022-12-07T07:23:29;101431.63;;;6.97;nan
12054;BME280;5638;50.860;4.698;2022-12-07T07:25:55;101433.50;;;7.12;nan
12054;BME280;5638;50.860;4.698;2022-12-07T07:28:21;101421.47;;;7.11;nan
12054;BME280;5638;50.860;4.698;2022-12-07T07:30:47;101433.59;;;7.26;nan
12054;BME280;5638;50.860;4.698;2022-12-07T07:33:13;101422.44;;;7.27;nan
12054;BME280;5638;50.860;4.698;2022-12-07T07:35:41;101421.59;;;7.23;nan
12054;BME280;5638;50.860;4.698;2022-12-07T07:38:08;101418.09;;;7.15;nan
12054;BME280;5638;50.860;4.698;2022-12-07T07:40:35;101422.31;;;7.10;nan
12054;BME280;5638;50.860;4.698;2022-12-07T07:43:01;101405.13;;;7.05;nan
12054;BME280;5638;50.860;4.698;2022-12-07T07:45:27;101412.78;;;6.98;nan
12054;BME280;5638;50.860;4.698;2022-12-07T07:47:53;101402.50;;;7.02;nan
12054;BME280;5638;50.860;4.698;2022-12-07T07:50:20;101400.78;;;6.99;nan
12054;BME280;5638;50.860;4.698;2022-12-07T07:52:46;101380.06;;;6.85;nan
12054;BME280;5638;50.860;4.698;2022-12-07T07:55:13;101417.16;;;7.10;nan
12054;BME280;5638;50.860;4.698;2022-12-07T07:57:40;101405.13;;;7.05;nan
12054;BME280;5638;50.860;4.698;2022-12-07T08:00:16;101410.28;;;7.09;nan
12054;BME280;5638;50.860;4.698;2022-12-07T08:02:42;101404.25;;;7.06;nan
12054;BME280;5638;50.860;4.698;2022-12-07T08:05:13;101405.19;;;7.12;nan
12054;BME280;5638;50.860;4.698;2022-12-07T08:07:39;101413.75;;;7.11;nan
12054;BME280;5638;50.860;4.698;2022-12-07T08:10:06;101404.25;;;7.06;nan
12054;BME280;5638;50.860;4.698;2022-12-07T08:12:39;101427.59;;;7.26;nan
12054;BME280;5638;50.860;4.698;2022-12-07T08:15:28;101422.44;;;7.26;nan
12054;BME280;5638;50.860;4.698;2022-12-07T08:17:55;101425.09;;;7.35;nan
12054;BME280;5638;50.860;4.698;2022-12-07T08:20:21;101428.38;;;7.18;nan
12054;BME280;5638;50.860;4.698;2022-12-07T08:22:47;101433.56;;;7.20;nan
12054;BME280;5638;50.860;4.698;2022-12-07T08:25:13;101440.38;;;7.15;nan
12054;BME280;5638;50.860;4.698;2022-12-07T08:27:38;101446.22;;;6.98;nan
12054;BME280;5638;50.860;4.698;2022-12-07T08:30:05;101444.59;;;7.08;nan
12054;BME280;5638;50.860;4.698;2022-12-07T08:32:31;101433.50;;;7.12;nan
12054;BME280;5638;50.860;4.698;2022-12-07T08:34:57;101442.47;;;7.65;nan
12054;BME280;5638;50.860;4.698;2022-12-07T08:37:23;101427.63;;;9.06;nan
12054;BME280;5638;50.860;4.698;2022-12-07T08:39:48;101440.41;;;10.34;nan
12054;BME280;5638;50.860;4.698;2022-12-07T08:42:14;101441.56;;;11.33;nan
12054;BME280;5638;50.860;4.698;2022-12-07T08:44:40;101421.31;;;11.73;nan
12054;BME280;5638;50.860;4.698;2022-12-07T08:47:07;101437.38;;;12.12;nan
12054;BME280;5638;50.860;4.698;2022-12-07T08:49:44;101429.13;;;12.49;nan
12054;BME280;5638;50.860;4.698;2022-12-07T08:52:11;101425.16;;;12.85;nan
12054;BME280;5638;50.860;4.698;2022-12-07T08:54:39;101422.91;;;13.19;nan
12054;BME280;5638;50.860;4.698;2022-12-07T08:57:06;101447.75;;;13.39;nan
12054;BME280;5638;50.860;4.698;2022-12-07T08:59:35;101444.81;;;13.05;nan
12054;BME280;5638;50.860;4.698;2022-12-07T09:02:01;101445.53;;;13.13;nan
12054;BME280;5638;50.860;4.698;2022-12-07T09:04:27;101439.97;;;12.11;nan
12054;BME280;5638;50.860;4.698;2022-12-07T09:06:55;101432.09;;;11.29;nan
12054;BME280;5638;50.860;4.698;2022-12-07T09:09:21;101446.13;;;10.94;nan
12054;BME280;5638;50.860;4.698;2022-12-07T09:11:47;101440.41;;;10.36;nan
12054;BME280;5638;50.860;4.698;2022-12-07T09:14:13;101448.28;;;9.76;nan
12054;BME280;5638;50.860;4.698;2022-12-07T09:16:39;101450.88;;;9.48;nan
12054;BME280;5638;50.860;4.698;2022-12-07T09:19:08;101450.03;;;9.22;nan
12054;BME280;5638;50.860;4.698;2022-12-07T09:21:34;101453.44;;;9.03;nan
12054;BME280;5638;50.860;4.698;2022-12-07T09:23:59;101451.69;;;8.79;nan
12054;BME280;5638;50.860;4.698;2022-12-07T09:26:25;101453.38;;;8.70;nan
12054;BME280;5638;50.860;4.698;2022-12-07T09:28:51;101438.69;;;8.53;nan
12054;BME280;5638;50.860;4.698;2022-12-07T09:31:17;101453.31;;;8.51;nan
12054;BME280;5638;50.860;4.698;2022-12-07T09:33:43;101438.63;;;8.39;nan
12054;BME280;5638;50.860;4.698;2022-12-07T09:36:09;101447.16;;;8.26;nan
12054;BME280;5638;50.860;4.698;2022-12-07T09:38:35;101449.63;;;8.09;nan
12054;BME280;5638;50.860;4.698;2022-12-07T09:41:06;101435.88;;;8.04;nan
12054;BME280;5638;50.860;4.698;2022-12-07T09:43:39;101446.13;;;7.97;nan
12054;BME280;5638;50.860;4.698;2022-12-07T09:46:05;101442.69;;;7.95;nan
12054;BME280;5638;50.860;4.698;2022-12-07T09:48:37;101442.69;;;7.92;nan
12054;BME280;5638;50.860;4.698;2022-12-07T09:51:18;101415.16;;;7.88;nan
12054;BME280;5638;50.860;4.698;2022-12-07T09:53:45;101439.38;;;8.16;nan
12054;BME280;5638;50.860;4.698;2022-12-07T09:56:14;101433.41;;;8.23;nan
12054;BME280;5638;50.860;4.698;2022-12-07T09:58:43;101428.22;;;8.22;nan
12054;BME280;5638;50.860;4.698;2022-12-07T10:01:15;101431.69;;;8.26;nan
12054;BME280;5638;50.860;4.698;2022-12-07T10:06:42;101413.69;;;8.33;nan
12054;BME280;5638;50.860;4.698;2022-12-07T10:09:20;101409.44;;;8.37;nan
12054;BME280;5638;50.860;4.698;2022-12-07T10:12:11;101405.94;;;8.33;nan
12054;BME280;5638;50.860;4.698;2022-12-07T10:14:52;101412.03;;;8.51;nan
12054;BME280;5638;50.860;4.698;2022-12-07T10:17:50;101412.91;;;8.56;nan
12054;BME280;5638;50.860;4.698;2022-12-07T10:20:27;101398.31;;;8.48;nan
12054;BME280;5638;50.860;4.698;2022-12-07T10:23:05;101397.44;;;8.60;nan
12054;BME280;5638;50.860;4.698;2022-12-07T10:25:38;101394.88;;;8.68;nan
12054;BME280;5638;50.860;4.698;2022-12-07T10:28:15;101388.91;;;8.75;nan
12054;BME280;5638;50.860;4.698;2022-12-07T10:30:59;101406.09;;;8.81;nan
12054;BME280;5638;50.860;4.698;2022-12-07T10:33:53;101408.69;;;8.88;nan
12054;BME280;5638;50.860;4.698;2022-12-07T10:36:37;101397.50;;;8.80;nan
12054;BME280;5638;50.860;4.698;2022-12-07T10:39:21;101397.50;;;8.94;nan
12054;BME280;5638;50.860;4.698;2022-12-07T10:42:02;101396.69;;;9.04;nan
12054;BME280;5638;50.860;4.698;2022-12-07T10:44:31;101394.94;;;9.11;nan
12054;BME280;5638;50.860;4.698;2022-12-07T10:47:36;101394.09;;;9.09;nan
12054;BME280;5638;50.860;4.698;2022-12-07T10:56:11;101379.22;;;10.19;nan
12054;BME280;5638;50.860;4.698;2022-12-07T11:10:55;101376.78;;;9.84;nan
12054;BME280;5638;50.860;4.698;2022-12-07T11:14:00;101355.28;;;9.73;nan
12054;BME280;5638;50.860;4.698;2022-12-07T11:19:33;101358.72;;;9.72;nan
12054;BME280;5638;50.860;4.698;2022-12-07T11:22:10;101346.69;;;9.74;nan
12054;BME280;5638;50.860;4.698;2022-12-07T11:25:17;101355.22;;;9.96;nan
12054;BME280;5638;50.860;4.698;2022-12-07T11:28:19;101345.25;;;10.84;nan
12054;BME280;5638;50.860;4.698;2022-12-07T11:33:53;101339.16;;;11.79;nan
12054;BME280;5638;50.860;4.698;2022-12-07T11:36:38;101324.75;;;11.55;nan
12054;BME280;5638;50.860;4.698;2022-12-07T11:39:33;101333.34;;;11.60;nan
12054;BME280;5638;50.860;4.698;2022-12-07T11:42:09;101323.97;;;11.46;nan
12054;BME280;5638;50.860;4.698;2022-12-07T11:44:52;101328.47;;;11.29;nan
12054;BME280;5638;50.860;4.698;2022-12-07T11:47:36;101325.22;;;11.06;nan
12054;BME280;5638;50.860;4.698;2022-12-07T11:53:23;101292.28;;;11.25;nan
12054;BME280;5638;50.860;4.698;2022-12-07T11:56:23;101314.94;;;11.81;nan
12054;BME280;5638;50.860;4.698;2022-12-07T12:01:44;101304.19;;;12.72;nan
12054;BME280;5638;50.860;4.698;2022-12-07T12:07:07;101287.44;;;13.41;nan
12054;BME280;5638;50.860;4.698;2022-12-07T12:09:53;101289.75;;;13.56;nan
12054;BME280;5638;50.860;4.698;2022-12-07T12:16:01;101287.34;;;13.45;nan
12054;BME280;5638;50.860;4.698;2022-12-07T12:21:29;101281.56;;;12.80;nan
12054;BME280;5638;50.860;4.698;2022-12-07T12:24:02;101280.53;;;12.35;nan
12054;BME280;5638;50.860;4.698;2022-12-07T12:26:35;101281.88;;;12.02;nan
12054;BME280;5638;50.860;4.698;2022-12-07T12:29:06;101283.94;;;11.75;nan
12054;BME280;5638;50.860;4.698;2022-12-07T12:31:39;101273.22;;;11.29;nan
12054;BME280;5638;50.860;4.698;2022-12-07T12:36:54;101271.72;;;11.03;nan
12054;BME280;5638;50.860;4.698;2022-12-07T12:39:20;101263.22;;;10.90;nan
12054;BME280;5638;50.860;4.698;2022-12-07T12:47:01;101272.88;;;10.75;nan
12054;BME280;5638;50.860;4.698;2022-12-07T12:49:40;101267.78;;;10.64;nan
12054;BME280;5638;50.860;4.698;2022-12-07T12:55:13;101267.13;;;10.34;nan
12054;BME280;5638;50.860;4.698;2022-12-07T12:57:40;101267.00;;;10.54;nan
12054;BME280;5638;50.860;4.698;2022-12-07T13:03:23;101250.69;;;11.35;nan
12054;BME280;5638;50.860;4.698;2022-12-07T13:06:19;101257.44;;;12.18;nan
12054;BME280;5638;50.860;4.698;2022-12-07T13:08:47;101254.25;;;12.56;nan
12054;BME280;5638;50.860;4.698;2022-12-07T13:11:32;101253.44;;;13.04;nan
12054;BME280;5638;50.860;4.698;2022-12-07T13:17:11;101236.53;;;14.13;nan
12054;BME280;5638;50.860;4.698;2022-12-07T13:28:01;101222.25;;;13.52;nan
12054;BME280;5638;50.860;4.698;2022-12-07T13:30:29;101222.34;;;13.45;nan
12054;BME280;5638;50.860;4.698;2022-12-07T13:32:58;101227.13;;;13.22;nan
12054;BME280;5638;50.860;4.698;2022-12-07T13:35:37;101209.59;;;12.88;nan
12054;BME280;5638;50.860;4.698;2022-12-07T13:38:23;101220.63;;;12.49;nan
12054;BME280;5638;50.860;4.698;2022-12-07T13:41:14;101214.22;;;12.18;nan
12054;BME280;5638;50.860;4.698;2022-12-07T13:43:55;101211.22;;;11.86;nan
12054;BME280;5638;50.860;4.698;2022-12-07T13:49:25;101189.88;;;11.64;nan
12054;BME280;5638;50.860;4.698;2022-12-07T13:51:52;101198.53;;;11.64;nan
12054;BME280;5638;50.860;4.698;2022-12-07T13:54:20;101189.50;;;11.27;nan
12054;BME280;5638;50.860;4.698;2022-12-07T13:56:52;101185.38;;;11.09;nan
12054;BME280;5638;50.860;4.698;2022-12-07T13:59:25;101192.81;;;11.36;nan
12054;BME280;5638;50.860;4.698;2022-12-07T14:01:53;101198.16;;;11.22;nan
12054;BME280;5638;50.860;4.698;2022-12-07T14:04:36;101188.03;;;11.04;nan
12054;BME280;5638;50.860;4.698;2022-12-07T14:07:26;101182.91;;;11.00;nan
12054;BME280;5638;50.860;4.698;2022-12-07T14:10:00;101172.81;;;10.72;nan
12054;BME280;5638;50.860;4.698;2022-12-07T14:12:29;101177.22;;;10.64;nan
12054;BME280;5638;50.860;4.698;2022-12-07T14:14:56;101191.06;;;10.60;nan
12054;BME280;5638;50.860;4.698;2022-12-07T14:17:26;101198.84;;;10.57;nan
12054;BME280;5638;50.860;4.698;2022-12-07T14:20:01;101195.53;;;10.39;nan
12054;BME280;5638;50.860;4.698;2022-12-07T14:22:36;101182.72;;;10.29;nan
12054;BME280;5638;50.860;4.698;2022-12-07T14:25:26;101186.16;;;10.26;nan
12054;BME280;5638;50.860;4.698;2022-12-07T14:28:00;101178.38;;;10.28;nan
12054;BME280;5638;50.860;4.698;2022-12-07T14:30:33;101186.94;;;10.37;nan
12054;BME280;5638;50.860;4.698;2022-12-07T14:33:04;101176.56;;;10.39;nan
12054;BME280;5638;50.860;4.698;2022-12-07T14:35:32;101177.44;;;10.36;nan
12054;BME280;5638;50.860;4.698;2022-12-07T14:38:02;101160.28;;;10.23;nan
12054;BME280;5638;50.860;4.698;2022-12-07T14:40:30;101170.63;;;10.23;nan
12054;BME280;5638;50.860;4.698;2022-12-07T14:43:11;101174.97;;;10.26;nan
12054;BME280;5638;50.860;4.698;2022-12-07T14:45:38;101187.00;;;10.28;nan
12054;BME280;5638;50.860;4.698;2022-12-07T14:48:05;101190.50;;;10.15;nan
12054;BME280;5638;50.860;4.698;2022-12-07T14:50:38;101185.44;;;10.04;nan
12054;BME280;5638;50.860;4.698;2022-12-07T14:53:14;101183.78;;;9.95;nan
12054;BME280;5638;50.860;4.698;2022-12-07T14:55:41;101164.00;;;9.88;nan
12054;BME280;5638;50.860;4.698;2022-12-07T14:58:14;101172.59;;;9.89;nan
12054;BME280;5638;50.860;4.698;2022-12-07T15:00:43;101173.53;;;9.76;nan
12054;BME280;5638;50.860;4.698;2022-12-07T15:03:10;101177.03;;;9.67;nan
12054;BME280;5638;50.860;4.698;2022-12-07T15:05:37;101172.81;;;9.47;nan
12054;BME280;5638;50.860;4.698;2022-12-07T15:08:03;101169.41;;;9.42;nan
12054;BME280;5638;50.860;4.698;2022-12-07T15:10:32;101158.25;;;9.34;nan
12054;BME280;5638;50.860;4.698;2022-12-07T15:13:03;101163.38;;;9.40;nan
12054;BME280;5638;50.860;4.698;2022-12-07T15:15:49;101172.00;;;9.45;nan
12054;BME280;5638;50.860;4.698;2022-12-07T15:18:16;101172.81;;;9.44;nan
12054;BME280;5638;50.860;4.698;2022-12-07T15:20:43;101160.78;;;9.43;nan
12054;BME280;5638;50.860;4.698;2022-12-07T15:23:11;101162.50;;;9.46;nan
12054;BME280;5638;50.860;4.698;2022-12-07T15:25:40;101157.41;;;9.34;nan
12054;BME280;5638;50.860;4.698;2022-12-07T15:28:06;101157.44;;;9.25;nan
12054;BME280;5638;50.860;4.698;2022-12-07T15:30:33;101154.06;;;9.06;nan
12054;BME280;5638;50.860;4.698;2022-12-07T15:32:59;101157.50;;;9.05;nan